sensor_id;sensor_type;location;lat;lon;timestamp;temperature;humidity
19224;DHT22;9746;47.180;9.776;2022-11-18T09:17:38;9.10;99.90
19224;DHT22;9746;47.180;9.776;2022-11-18T09:20:07;9.10;99.90
19224;DHT22;9746;47.180;9.776;2022-11-18T09:22:36;9.10;99.90
19224;DHT22;9746;47.180;9.776;2022-11-18T09:25:05;9.10;99.90
19224;DHT22;9746;47.180;9.776;2022-11-18T09:27:34;9.10;99.90
19224;DHT22;9746;47.180;9.776;2022-11-18T09:30:01;9.20;99.90
19224;DHT22;9746;47.180;9.776;2022-11-18T09:32:28;9.20;99.90
19224;DHT22;9746;47.180;9.776;2022-11-18T09:34:57;9.20;99.90
19224;DHT22;9746;47.180;9.776;2022-11-18T09:37:25;9.20;99.90
19224;DHT22;9746;47.180;9.776;2022-11-18T09:39:52;9.10;99.90
19224;DHT22;9746;47.180;9.776;2022-11-18T09:42:32;9.10;99.90
19224;DHT22;9746;47.180;9.776;2022-11-18T09:45:15;9.10;99.90
19224;DHT22;9746;47.180;9.776;2022-11-18T09:47:44;9.10;99.90
19224;DHT22;9746;47.180;9.776;2022-11-18T09:50:15;9.20;99.90
19224;DHT22;9746;47.180;9.776;2022-11-18T09:53:01;9.30;99.90
19224;DHT22;9746;47.180;9.776;2022-11-18T09:55:30;9.30;99.90
19224;DHT22;9746;47.180;9.776;2022-11-18T09:58:01;9.30;99.90
19224;DHT22;9746;47.180;9.776;2022-11-18T10:00:29;9.30;99.90
19224;DHT22;9746;47.180;9.776;2022-11-18T10:03:00;9.30;99.90
19224;DHT22;9746;47.180;9.776;2022-11-18T10:05:33;9.30;99.90
19224;DHT22;9746;47.180;9.776;2022-11-18T10:08:17;9.40;99.90
19224;DHT22;9746;47.180;9.776;2022-11-18T10:10:53;9.40;99.90
19224;DHT22;9746;47.180;9.776;2022-11-18T10:13:35;9.50;99.90
19224;DHT22;9746;47.180;9.776;2022-11-18T10:16:21;9.50;99.90
19224;DHT22;9746;47.180;9.776;2022-11-18T10:19:07;9.50;99.90
19224;DHT22;9746;47.180;9.776;2022-11-18T10:21:44;9.50;99.90
19224;DHT22;9746;47.180;9.776;2022-11-18T10:24:23;9.60;99.90
19224;DHT22;9746;47.180;9.776;2022-11-18T10:27:09;9.60;99.90
19224;DHT22;9746;47.180;9.776;2022-11-18T10:29:43;9.70;99.90
19224;DHT22;9746;47.180;9.776;2022-11-18T10:32:13;9.70;99.90
19224;DHT22;9746;47.180;9.776;2022-11-18T10:34:47;9.80;99.90
19224;DHT22;9746;47.180;9.776;2022-11-18T10:37:25;9.80;99.90
19224;DHT22;9746;47.180;9.776;2022-11-18T10:39:54;9.80;99.90
19224;DHT22;9746;47.180;9.776;2022-11-18T10:42:27;9.90;99.90
19224;DHT22;9746;47.180;9.776;2022-11-18T10:44:55;10.00;99.90
19224;DHT22;9746;47.180;9.776;2022-11-18T10:47:49;10.10;99.90
19224;DHT22;9746;47.180;9.776;2022-11-18T10:50:29;10.10;99.90
19224;DHT22;9746;47.180;9.776;2022-11-18T10:53:04;10.30;99.90
19224;DHT22;9746;47.180;9.776;2022-11-18T10:55:32;10.30;99.90
19224;DHT22;9746;47.180;9.776;2022-11-18T10:58:02;10.30;99.90
19224;DHT22;9746;47.180;9.776;2022-11-18T11:00:42;10.30;99.90
19224;DHT22;9746;47.180;9.776;2022-11-18T11:06:22;10.40;99.90
19224;DHT22;9746;47.180;9.776;2022-11-18T11:08:58;10.50;99.90
19224;DHT22;9746;47.180;9.776;2022-11-18T11:11:28;10.50;99.90
19224;DHT22;9746;47.180;9.776;2022-11-18T11:14:14;10.60;99.90
19224;DHT22;9746;47.180;9.776;2022-11-18T11:16:46;10.60;99.90
19224;DHT22;9746;47.180;9.776;2022-11-18T11:19:20;10.50;99.90
19224;DHT22;9746;47.180;9.776;2022-11-18T11:21:49;10.40;99.90
19224;DHT22;9746;47.180;9.776;2022-11-18T11:24:26;10.40;99.90
19224;DHT22;9746;47.180;9.776;2022-11-18T11:27:04;10.50;99.90
19224;DHT22;9746;47.180;9.776;2022-11-18T11:30:07;10.70;99.90
19224;DHT22;9746;47.180;9.776;2022-11-18T11:32:54;10.80;99.90
19224;DHT22;9746;47.180;9.776;2022-11-18T11:35:31;11.10;99.90
19224;DHT22;9746;47.180;9.776;2022-11-18T11:38:03;11.30;99.90
19224;DHT22;9746;47.180;9.776;2022-11-18T11:40:50;11.50;99.90
19224;DHT22;9746;47.180;9.776;2022-11-18T11:43:34;11.70;99.90
19224;DHT22;9746;47.180;9.776;2022-11-18T11:46:20;11.90;99.90
19224;DHT22;9746;47.180;9.776;2022-11-18T11:48:58;11.90;99.90
19224;DHT22;9746;47.180;9.776;2022-11-18T11:51:35;12.00;99.90
19224;DHT22;9746;47.180;9.776;2022-11-18T11:54:20;12.00;99.90
19224;DHT22;9746;47.180;9.776;2022-11-18T11:56:56;12.00;99.90
19224;DHT22;9746;47.180;9.776;2022-11-18T11:59:36;12.00;99.90
19224;DHT22;9746;47.180;9.776;2022-11-18T12:02:27;11.80;99.90
19224;DHT22;9746;47.180;9.776;2022-11-18T12:05:00;11.60;99.90
19224;DHT22;9746;47.180;9.776;2022-11-18T12:07:36;11.50;99.90
19224;DHT22;9746;47.180;9.776;2022-11-18T12:10:28;11.40;99.90
19224;DHT22;9746;47.180;9.776;2022-11-18T12:13:10;11.30;99.90
19224;DHT22;9746;47.180;9.776;2022-11-18T12:16:03;11.30;99.90
19224;DHT22;9746;47.180;9.776;2022-11-18T12:18:37;11.50;99.90
19224;DHT22;9746;47.180;9.776;2022-11-18T12:21:06;11.90;99.90
19224;DHT22;9746;47.180;9.776;2022-11-18T12:23:34;12.50;99.90
19224;DHT22;9746;47.180;9.776;2022-11-18T12:26:04;13.50;99.90
19224;DHT22;9746;47.180;9.776;2022-11-18T12:28:36;14.60;99.90
19224;DHT22;9746;47.180;9.776;2022-11-18T12:31:31;15.90;99.90
19224;DHT22;9746;47.180;9.776;2022-11-18T12:34:27;16.50;99.90
19224;DHT22;9746;47.180;9.776;2022-11-18T12:36:55;16.50;99.90
19224;DHT22;9746;47.180;9.776;2022-11-18T12:39:46;16.00;99.90
19224;DHT22;9746;47.180;9.776;2022-11-18T12:42:36;15.50;99.90
19224;DHT22;9746;47.180;9.776;2022-11-18T12:45:56;15.20;99.90
19224;DHT22;9746;47.180;9.776;2022-11-18T12:48:38;15.00;99.90
19224;DHT22;9746;47.180;9.776;2022-11-18T12:54:26;14.30;99.90
19224;DHT22;9746;47.180;9.776;2022-11-18T12:56:56;14.10;99.90
19224;DHT22;9746;47.180;9.776;2022-11-18T12:59:29;13.90;99.90
19224;DHT22;9746;47.180;9.776;2022-11-18T13:02:19;13.70;99.90
19224;DHT22;9746;47.180;9.776;2022-11-18T13:05:03;13.60;99.90
19224;DHT22;9746;47.180;9.776;2022-11-18T13:07:32;13.50;99.90
19224;DHT22;9746;47.180;9.776;2022-11-18T13:10:23;13.50;99.90
19224;DHT22;9746;47.180;9.776;2022-11-18T13:12:53;13.40;99.90
19224;DHT22;9746;47.180;9.776;2022-11-18T13:15:21;13.40;99.90
19224;DHT22;9746;47.180;9.776;2022-11-18T13:18:13;13.10;99.90
19224;DHT22;9746;47.180;9.776;2022-11-18T13:20:41;12.80;99.90
19224;DHT22;9746;47.180;9.776;2022-11-18T13:23:27;12.70;99.90
19224;DHT22;9746;47.180;9.776;2022-11-18T13:26:28;12.60;99.90
19224;DHT22;9746;47.180;9.776;2022-11-18T13:29:21;12.60;99.90
19224;DHT22;9746;47.180;9.776;2022-11-18T13:31:59;12.50;99.90
19224;DHT22;9746;47.180;9.776;2022-11-18T13:34:29;12.50;99.90
19224;DHT22;9746;47.180;9.776;2022-11-18T13:36:58;12.50;99.90
19224;DHT22;9746;47.180;9.776;2022-11-18T13:39:28;12.30;99.90
19224;DHT22;9746;47.180;9.776;2022-11-18T13:42:00;12.30;99.90
19224;DHT22;9746;47.180;9.776;2022-11-18T13:44:29;12.30;99.90
19224;DHT22;9746;47.180;9.776;2022-11-18T13:47:03;12.30;99.90
19224;DHT22;9746;47.180;9.776;2022-11-18T13:49:49;12.20;99.90
19224;DHT22;9746;47.180;9.776;2022-11-18T13:52:20;12.30;99.90
19224;DHT22;9746;47.180;9.776;2022-11-18T13:54:52;12.10;99.90
19224;DHT22;9746;47.180;9.776;2022-11-18T13:57:22;11.80;99.90
19224;DHT22;9746;47.180;9.776;2022-11-18T13:59:51;11.70;99.90
19224;DHT22;9746;47.180;9.776;2022-11-18T14:02:20;11.50;99.90
19224;DHT22;9746;47.180;9.776;2022-11-18T14:04:52;11.30;99.90
19224;DHT22;9746;47.180;9.776;2022-11-18T14:07:26;11.20;99.90
19224;DHT22;9746;47.180;9.776;2022-11-18T14:09:55;11.10;99.90
19224;DHT22;9746;47.180;9.776;2022-11-18T14:12:25;11.00;99.90
19224;DHT22;9746;47.180;9.776;2022-11-18T14:15:13;11.00;99.90
19224;DHT22;9746;47.180;9.776;2022-11-18T14:17:50;11.00;99.90
19224;DHT22;9746;47.180;9.776;2022-11-18T14:20:20;11.00;99.90
19224;DHT22;9746;47.180;9.776;2022-11-18T14:22:52;11.00;99.90
19224;DHT22;9746;47.180;9.776;2022-11-18T14:25:24;11.00;99.90
19224;DHT22;9746;47.180;9.776;2022-11-18T14:27:53;11.00;99.90
19224;DHT22;9746;47.180;9.776;2022-11-18T14:30:34;10.90;99.90
19224;DHT22;9746;47.180;9.776;2022-11-18T14:33:16;10.60;99.90
19224;DHT22;9746;47.180;9.776;2022-11-18T14:35:51;10.50;99.90
19224;DHT22;9746;47.180;9.776;2022-11-18T14:38:22;10.30;99.90
19224;DHT22;9746;47.180;9.776;2022-11-18T14:40:54;10.20;99.90
19224;DHT22;9746;47.180;9.776;2022-11-18T14:43:23;10.10;99.90
19224;DHT22;9746;47.180;9.776;2022-11-18T14:45:52;10.00;99.90
19224;DHT22;9746;47.180;9.776;2022-11-18T14:48:21;10.00;99.90
19224;DHT22;9746;47.180;9.776;2022-11-18T14:50:51;10.00;99.90
19224;DHT22;9746;47.180;9.776;2022-11-18T14:53:19;10.00;99.90
19224;DHT22;9746;47.180;9.776;2022-11-18T14:55:49;10.00;99.90
19224;DHT22;9746;47.180;9.776;2022-11-18T14:58:17;10.00;99.90
19224;DHT22;9746;47.180;9.776;2022-11-18T15:00:47;10.10;99.90
19224;DHT22;9746;47.180;9.776;2022-11-18T15:03:15;10.10;99.90
19224;DHT22;9746;47.180;9.776;2022-11-18T15:05:44;10.20;99.90
19224;DHT22;9746;47.180;9.776;2022-11-18T15:08:13;10.20;99.90
19224;DHT22;9746;47.180;9.776;2022-11-18T15:10:42;10.20;99.90
19224;DHT22;9746;47.180;9.776;2022-11-18T15:13:10;10.20;99.90
19224;DHT22;9746;47.180;9.776;2022-11-18T15:15:39;10.10;99.90
19224;DHT22;9746;47.180;9.776;2022-11-18T15:18:08;9.90;99.90
19224;DHT22;9746;47.180;9.776;2022-11-18T15:20:35;9.80;99.90
19224;DHT22;9746;47.180;9.776;2022-11-18T15:23:02;9.70;99.90
19224;DHT22;9746;47.180;9.776;2022-11-18T15:25:32;9.50;99.90
19224;DHT22;9746;47.180;9.776;2022-11-18T15:28:00;9.50;99.90
19224;DHT22;9746;47.180;9.776;2022-11-18T15:30:28;9.40;99.90
19224;DHT22;9746;47.180;9.776;2022-11-18T15:32:55;9.50;99.90
19224;DHT22;9746;47.180;9.776;2022-11-18T15:35:24;9.50;99.90
19224;DHT22;9746;47.180;9.776;2022-11-18T15:37:51;9.60;99.90
19224;DHT22;9746;47.180;9.776;2022-11-18T15:40:25;9.60;99.90
19224;DHT22;9746;47.180;9.776;2022-11-18T15:42:54;9.60;99.90
19224;DHT22;9746;47.180;9.776;2022-11-18T15:45:21;9.60;99.90
19224;DHT22;9746;47.180;9.776;2022-11-18T15:47:50;9.60;99.90
19224;DHT22;9746;47.180;9.776;2022-11-18T15:50:18;9.50;99.90
19224;DHT22;9746;47.180;9.776;2022-11-18T15:52:46;9.50;99.90
19224;DHT22;9746;47.180;9.776;2022-11-18T15:55:16;9.40;99.90
19224;DHT22;9746;47.180;9.776;2022-11-18T15:57:44;9.40;99.90
19224;DHT22;9746;47.180;9.776;2022-11-18T16:00:15;9.40;99.90
19224;DHT22;9746;47.180;9.776;2022-11-18T16:02:43;9.30;99.90
19224;DHT22;9746;47.180;9.776;2022-11-18T16:05:17;9.30;99.90
19224;DHT22;9746;47.180;9.776;2022-11-18T16:07:45;9.20;99.90
19224;DHT22;9746;47.180;9.776;2022-11-18T16:10:18;9.10;99.90
19224;DHT22;9746;47.180;9.776;2022-11-18T16:13:03;9.00;99.90
19224;DHT22;9746;47.180;9.776;2022-11-18T16:15:40;9.00;99.90
19224;DHT22;9746;47.180;9.776;2022-11-18T16:18:13;9.00;99.90
19224;DHT22;9746;47.180;9.776;2022-11-18T16:20:42;8.90;99.90
19224;DHT22;9746;47.180;9.776;2022-11-18T16:23:10;8.90;99.90
19224;DHT22;9746;47.180;9.776;2022-11-18T16:25:43;8.90;99.90
19224;DHT22;9746;47.180;9.776;2022-11-18T16:28:11;8.90;99.90
19224;DHT22;9746;47.180;9.776;2022-11-18T16:30:47;8.90;99.90
19224;DHT22;9746;47.180;9.776;2022-11-18T16:33:31;8.90;99.90
19224;DHT22;9746;47.180;9.776;2022-11-18T16:36:00;8.90;99.90
19224;DHT22;9746;47.180;9.776;2022-11-18T16:38:27;8.90;99.90
19224;DHT22;9746;47.180;9.776;2022-11-18T16:40:55;8.80;99.90
19224;DHT22;9746;47.180;9.776;2022-11-18T16:43:22;8.80;99.90
19224;DHT22;9746;47.180;9.776;2022-11-18T16:45:53;8.70;99.90
19224;DHT22;9746;47.180;9.776;2022-11-18T16:48:21;8.60;99.90
19224;DHT22;9746;47.180;9.776;2022-11-18T16:50:59;8.60;99.90
19224;DHT22;9746;47.180;9.776;2022-11-18T16:53:28;8.50;99.90
19224;DHT22;9746;47.180;9.776;2022-11-18T16:56:01;8.50;99.90
19224;DHT22;9746;47.180;9.776;2022-11-18T16:58:29;8.50;99.90
19224;DHT22;9746;47.180;9.776;2022-11-18T17:00:58;8.50;99.90
19224;DHT22;9746;47.180;9.776;2022-11-18T17:03:25;8.50;99.90
19224;DHT22;9746;47.180;9.776;2022-11-18T17:05:59;8.50;99.90
19224;DHT22;9746;47.180;9.776;2022-11-18T17:08:27;8.50;99.90
19224;DHT22;9746;47.180;9.776;2022-11-18T17:10:57;8.50;99.90
19224;DHT22;9746;47.180;9.776;2022-11-18T17:13:24;8.50;99.90
19224;DHT22;9746;47.180;9.776;2022-11-18T17:15:54;8.50;99.90
19224;DHT22;9746;47.180;9.776;2022-11-18T17:18:22;8.50;99.90
19224;DHT22;9746;47.180;9.776;2022-11-18T17:20:51;8.40;99.90
19224;DHT22;9746;47.180;9.776;2022-11-18T17:23:18;8.40;99.90
19224;DHT22;9746;47.180;9.776;2022-11-18T17:25:45;8.40;99.90
19224;DHT22;9746;47.180;9.776;2022-11-18T17:28:13;8.40;99.90
19224;DHT22;9746;47.180;9.776;2022-11-18T17:30:41;8.40;99.90
19224;DHT22;9746;47.180;9.776;2022-11-18T17:33:09;8.40;99.90
19224;DHT22;9746;47.180;9.776;2022-11-18T17:35:38;8.30;99.90
19224;DHT22;9746;47.180;9.776;2022-11-18T17:38:05;8.20;99.90
19224;DHT22;9746;47.180;9.776;2022-11-18T17:40:33;8.00;99.90
19224;DHT22;9746;47.180;9.776;2022-11-18T17:43:00;7.90;99.90
19224;DHT22;9746;47.180;9.776;2022-11-18T17:45:32;7.80;99.90
19224;DHT22;9746;47.180;9.776;2022-11-18T17:48:00;7.80;99.90
19224;DHT22;9746;47.180;9.776;2022-11-18T17:50:30;7.70;99.90
19224;DHT22;9746;47.180;9.776;2022-11-18T17:52:59;7.70;99.90
19224;DHT22;9746;47.180;9.776;2022-11-18T17:55:27;7.80;99.90
19224;DHT22;9746;47.180;9.776;2022-11-18T17:57:55;7.80;99.90
19224;DHT22;9746;47.180;9.776;2022-11-18T18:00:23;7.90;99.90
19224;DHT22;9746;47.180;9.776;2022-11-18T18:02:50;7.90;99.90
19224;DHT22;9746;47.180;9.776;2022-11-18T18:05:18;8.00;99.90
19224;DHT22;9746;47.180;9.776;2022-11-18T18:07:45;8.00;99.90
19224;DHT22;9746;47.180;9.776;2022-11-18T18:10:15;7.90;99.90
19224;DHT22;9746;47.180;9.776;2022-11-18T18:12:43;7.80;99.90
19224;DHT22;9746;47.180;9.776;2022-11-18T18:15:27;7.70;99.90
19224;DHT22;9746;47.180;9.776;2022-11-18T18:17:55;7.80;99.90
19224;DHT22;9746;47.180;9.776;2022-11-18T18:20:23;7.70;99.90
19224;DHT22;9746;47.180;9.776;2022-11-18T18:22:51;7.70;99.90
19224;DHT22;9746;47.180;9.776;2022-11-18T18:25:20;7.70;99.90
19224;DHT22;9746;47.180;9.776;2022-11-18T18:27:55;7.70;99.90
19224;DHT22;9746;47.180;9.776;2022-11-18T18:30:22;7.70;99.90
19224;DHT22;9746;47.180;9.776;2022-11-18T18:32:50;7.70;99.90
19224;DHT22;9746;47.180;9.776;2022-11-18T18:35:17;7.70;99.90
19224;DHT22;9746;47.180;9.776;2022-11-18T18:37:45;7.70;99.90
19224;DHT22;9746;47.180;9.776;2022-11-18T18:40:13;7.70;99.90
19224;DHT22;9746;47.180;9.776;2022-11-18T18:42:42;7.60;99.90
19224;DHT22;9746;47.180;9.776;2022-11-18T18:45:09;7.50;99.90
19224;DHT22;9746;47.180;9.776;2022-11-18T18:48:00;7.40;99.90
19224;DHT22;9746;47.180;9.776;2022-11-18T18:50:28;7.20;99.90
19224;DHT22;9746;47.180;9.776;2022-11-18T18:52:57;7.10;99.90
19224;DHT22;9746;47.180;9.776;2022-11-18T18:55:25;7.00;99.90
19224;DHT22;9746;47.180;9.776;2022-11-18T18:57:56;7.00;99.90
19224;DHT22;9746;47.180;9.776;2022-11-18T19:00:23;7.00;99.90
19224;DHT22;9746;47.180;9.776;2022-11-18T19:02:51;7.00;99.90
19224;DHT22;9746;47.180;9.776;2022-11-18T19:05:19;7.00;99.90
19224;DHT22;9746;47.180;9.776;2022-11-18T19:07:59;7.00;99.90
19224;DHT22;9746;47.180;9.776;2022-11-18T19:10:27;7.10;99.90
19224;DHT22;9746;47.180;9.776;2022-11-18T19:12:57;7.10;99.90
19224;DHT22;9746;47.180;9.776;2022-11-18T19:15:23;7.20;99.90
19224;DHT22;9746;47.180;9.776;2022-11-18T19:17:51;7.20;99.90
19224;DHT22;9746;47.180;9.776;2022-11-18T19:20:18;7.20;99.90
19224;DHT22;9746;47.180;9.776;2022-11-18T19:23:05;7.20;99.90
19224;DHT22;9746;47.180;9.776;2022-11-18T19:25:34;7.20;99.90
19224;DHT22;9746;47.180;9.776;2022-11-18T19:28:05;7.10;99.90
19224;DHT22;9746;47.180;9.776;2022-11-18T19:30:33;7.10;99.90
19224;DHT22;9746;47.180;9.776;2022-11-18T19:33:00;7.00;99.90
19224;DHT22;9746;47.180;9.776;2022-11-18T19:35:27;7.10;99.90
19224;DHT22;9746;47.180;9.776;2022-11-18T19:38:12;7.00;99.90
19224;DHT22;9746;47.180;9.776;2022-11-18T19:40:39;7.00;99.90
19224;DHT22;9746;47.180;9.776;2022-11-18T19:43:10;6.90;99.90
19224;DHT22;9746;47.180;9.776;2022-11-18T19:45:38;6.80;99.90
19224;DHT22;9746;47.180;9.776;2022-11-18T19:48:19;6.80;99.90
19224;DHT22;9746;47.180;9.776;2022-11-18T19:50:47;6.80;99.90
19224;DHT22;9746;47.180;9.776;2022-11-18T19:53:15;6.70;99.90
19224;DHT22;9746;47.180;9.776;2022-11-18T19:55:58;6.70;99.90
19224;DHT22;9746;47.180;9.776;2022-11-18T19:58:30;6.70;99.90
19224;DHT22;9746;47.180;9.776;2022-11-18T20:01:08;6.70;99.90
19224;DHT22;9746;47.180;9.776;2022-11-18T20:03:36;6.60;99.90
19224;DHT22;9746;47.180;9.776;2022-11-18T20:06:04;6.60;99.90
19224;DHT22;9746;47.180;9.776;2022-11-18T20:08:34;6.60;99.90
19224;DHT22;9746;47.180;9.776;2022-11-18T20:11:03;6.60;99.90
19224;DHT22;9746;47.180;9.776;2022-11-18T20:13:33;6.60;99.90
19224;DHT22;9746;47.180;9.776;2022-11-18T20:16:01;6.50;99.90
19224;DHT22;9746;47.180;9.776;2022-11-18T20:18:30;6.50;99.90
19224;DHT22;9746;47.180;9.776;2022-11-18T20:21:08;6.50;99.90
19224;DHT22;9746;47.180;9.776;2022-11-18T20:23:37;6.50;99.90
19224;DHT22;9746;47.180;9.776;2022-11-18T20:26:07;6.50;99.90
19224;DHT22;9746;47.180;9.776;2022-11-18T20:28:40;6.40;99.90
19224;DHT22;9746;47.180;9.776;2022-11-18T20:31:10;6.40;99.90
19224;DHT22;9746;47.180;9.776;2022-11-18T20:33:39;6.30;99.90
19224;DHT22;9746;47.180;9.776;2022-11-18T20:36:09;6.30;99.90
19224;DHT22;9746;47.180;9.776;2022-11-18T20:38:40;6.30;99.90
19224;DHT22;9746;47.180;9.776;2022-11-18T20:41:10;6.30;99.90
19224;DHT22;9746;47.180;9.776;2022-11-18T20:43:42;6.30;99.90
19224;DHT22;9746;47.180;9.776;2022-11-18T20:46:12;6.20;99.90
19224;DHT22;9746;47.180;9.776;2022-11-18T20:48:43;6.20;99.90
19224;DHT22;9746;47.180;9.776;2022-11-18T20:51:12;6.10;99.90
19224;DHT22;9746;47.180;9.776;2022-11-18T20:53:43;6.10;99.90
